Terminal Aerodrome Forecast
Issued by NWS Austin/San Antonio, TX

Home | Current Version | Previous Version | Text Only | Print | Product List | Glossary On
Versions: 1 2 3 4 5 6 7 8 9 10 11 12 13 14 15 16 17 18 19
261
FTUS44 KEWX 221724
TAFDRT
TAF
KDRT 221724Z 2218/2318 14015KT P6SM BKN040
     FM230900 12011KT P6SM BKN025
     FM231600 13014KT P6SM BKN040=

USA.gov is the U.S. government's official web portal to all federal, state and local government web resources and services.